sensor_id;sensor_type;location;lat;lon;timestamp;temperature;humidity
13673;DHT22;6909;52.202;9.876;2023-03-03T00:01:08;-0.50;99.90
13673;DHT22;6909;52.202;9.876;2023-03-03T00:03:35;-0.50;99.90
13673;DHT22;6909;52.202;9.876;2023-03-03T00:06:04;-0.50;99.90
13673;DHT22;6909;52.202;9.876;2023-03-03T00:08:31;-0.50;99.90
13673;DHT22;6909;52.202;9.876;2023-03-03T00:10:58;-0.50;99.90
13673;DHT22;6909;52.202;9.876;2023-03-03T00:13:27;-0.50;99.90
13673;DHT22;6909;52.202;9.876;2023-03-03T00:16:10;-0.40;99.90
13673;DHT22;6909;52.202;9.876;2023-03-03T00:18:42;-0.40;99.90
13673;DHT22;6909;52.202;9.876;2023-03-03T00:21:25;-0.50;99.90
13673;DHT22;6909;52.202;9.876;2023-03-03T00:23:54;-0.50;99.90
13673;DHT22;6909;52.202;9.876;2023-03-03T00:26:22;-0.50;99.90
13673;DHT22;6909;52.202;9.876;2023-03-03T00:28:52;-0.60;99.90
13673;DHT22;6909;52.202;9.876;2023-03-03T00:31:25;-0.60;99.90
13673;DHT22;6909;52.202;9.876;2023-03-03T00:33:54;-0.50;99.90
13673;DHT22;6909;52.202;9.876;2023-03-03T00:36:27;-0.70;99.90
13673;DHT22;6909;52.202;9.876;2023-03-03T00:38:59;-0.60;99.90
13673;DHT22;6909;52.202;9.876;2023-03-03T00:41:36;-0.70;99.90
13673;DHT22;6909;52.202;9.876;2023-03-03T00:44:38;-0.70;99.90
13673;DHT22;6909;52.202;9.876;2023-03-03T00:47:18;-0.60;99.90
13673;DHT22;6909;52.202;9.876;2023-03-03T00:49:48;-0.50;99.90
13673;DHT22;6909;52.202;9.876;2023-03-03T00:52:17;-0.50;99.90
13673;DHT22;6909;52.202;9.876;2023-03-03T00:54:44;-0.40;99.90
13673;DHT22;6909;52.202;9.876;2023-03-03T00:57:11;-0.50;99.90
13673;DHT22;6909;52.202;9.876;2023-03-03T00:59:39;-0.40;99.90
13673;DHT22;6909;52.202;9.876;2023-03-03T01:02:06;-0.50;99.90
13673;DHT22;6909;52.202;9.876;2023-03-03T01:04:33;-0.50;99.90
13673;DHT22;6909;52.202;9.876;2023-03-03T01:06:59;-0.60;99.90
13673;DHT22;6909;52.202;9.876;2023-03-03T01:09:27;-0.60;99.90
13673;DHT22;6909;52.202;9.876;2023-03-03T01:11:54;-0.60;99.90
13673;DHT22;6909;52.202;9.876;2023-03-03T01:14:20;-0.60;99.90
13673;DHT22;6909;52.202;9.876;2023-03-03T01:16:48;-0.60;99.90
13673;DHT22;6909;52.202;9.876;2023-03-03T01:19:15;-0.50;99.90
13673;DHT22;6909;52.202;9.876;2023-03-03T01:21:42;-0.60;99.90
13673;DHT22;6909;52.202;9.876;2023-03-03T01:24:08;-0.60;99.90
13673;DHT22;6909;52.202;9.876;2023-03-03T01:26:35;-0.60;99.90
13673;DHT22;6909;52.202;9.876;2023-03-03T01:29:02;-0.50;99.90
13673;DHT22;6909;52.202;9.876;2023-03-03T01:31:28;-0.50;99.90
13673;DHT22;6909;52.202;9.876;2023-03-03T01:33:56;-0.50;99.90
13673;DHT22;6909;52.202;9.876;2023-03-03T01:36:23;-0.50;99.90
13673;DHT22;6909;52.202;9.876;2023-03-03T01:38:53;-0.50;99.90
13673;DHT22;6909;52.202;9.876;2023-03-03T01:41:20;-0.60;99.90
13673;DHT22;6909;52.202;9.876;2023-03-03T01:43:48;-0.60;99.90
13673;DHT22;6909;52.202;9.876;2023-03-03T01:46:33;-0.60;99.90
13673;DHT22;6909;52.202;9.876;2023-03-03T01:49:05;-0.60;99.90
13673;DHT22;6909;52.202;9.876;2023-03-03T01:51:35;-0.60;99.90
13673;DHT22;6909;52.202;9.876;2023-03-03T01:54:05;-0.60;99.90
13673;DHT22;6909;52.202;9.876;2023-03-03T01:56:36;-0.60;99.90
13673;DHT22;6909;52.202;9.876;2023-03-03T01:59:04;-0.60;99.90
13673;DHT22;6909;52.202;9.876;2023-03-03T02:01:33;-0.60;99.90
13673;DHT22;6909;52.202;9.876;2023-03-03T02:04:01;-0.60;99.90
13673;DHT22;6909;52.202;9.876;2023-03-03T02:06:31;-0.70;99.90
13673;DHT22;6909;52.202;9.876;2023-03-03T02:09:02;-0.70;99.90
13673;DHT22;6909;52.202;9.876;2023-03-03T02:11:31;-0.70;99.90
13673;DHT22;6909;52.202;9.876;2023-03-03T02:14:00;-0.70;99.90
13673;DHT22;6909;52.202;9.876;2023-03-03T02:16:27;-0.70;99.90
13673;DHT22;6909;52.202;9.876;2023-03-03T02:18:54;-0.60;99.90
13673;DHT22;6909;52.202;9.876;2023-03-03T02:21:23;-0.60;99.90
13673;DHT22;6909;52.202;9.876;2023-03-03T02:23:54;-0.60;99.90
13673;DHT22;6909;52.202;9.876;2023-03-03T02:26:26;-0.60;99.90
13673;DHT22;6909;52.202;9.876;2023-03-03T02:28:54;-0.70;99.90
13673;DHT22;6909;52.202;9.876;2023-03-03T02:31:22;-0.70;99.90
13673;DHT22;6909;52.202;9.876;2023-03-03T02:33:50;-0.70;99.90
13673;DHT22;6909;52.202;9.876;2023-03-03T02:36:19;-0.70;99.90
13673;DHT22;6909;52.202;9.876;2023-03-03T02:38:52;-0.80;99.90
13673;DHT22;6909;52.202;9.876;2023-03-03T02:41:29;-0.80;99.90
13673;DHT22;6909;52.202;9.876;2023-03-03T02:44:00;-0.70;99.90
13673;DHT22;6909;52.202;9.876;2023-03-03T02:46:28;-0.80;99.90
13673;DHT22;6909;52.202;9.876;2023-03-03T02:48:57;-0.80;99.90
13673;DHT22;6909;52.202;9.876;2023-03-03T02:51:24;-0.80;99.90
13673;DHT22;6909;52.202;9.876;2023-03-03T02:53:50;-0.80;99.90
13673;DHT22;6909;52.202;9.876;2023-03-03T02:56:17;-0.90;99.90
13673;DHT22;6909;52.202;9.876;2023-03-03T02:58:45;-1.00;99.90
13673;DHT22;6909;52.202;9.876;2023-03-03T03:01:11;-1.00;99.90
13673;DHT22;6909;52.202;9.876;2023-03-03T03:03:38;-1.00;99.90
13673;DHT22;6909;52.202;9.876;2023-03-03T03:06:06;-1.10;99.90
13673;DHT22;6909;52.202;9.876;2023-03-03T03:08:32;-1.20;99.90
13673;DHT22;6909;52.202;9.876;2023-03-03T03:10:59;-1.10;99.90
13673;DHT22;6909;52.202;9.876;2023-03-03T03:13:26;-1.00;99.90
13673;DHT22;6909;52.202;9.876;2023-03-03T03:15:54;-1.00;99.90
13673;DHT22;6909;52.202;9.876;2023-03-03T03:18:21;-1.10;99.90
13673;DHT22;6909;52.202;9.876;2023-03-03T03:23:25;-1.00;99.90
13673;DHT22;6909;52.202;9.876;2023-03-03T03:25:52;-1.00;99.90
13673;DHT22;6909;52.202;9.876;2023-03-03T03:28:18;-1.10;99.90
13673;DHT22;6909;52.202;9.876;2023-03-03T03:30:45;-1.10;99.90
13673;DHT22;6909;52.202;9.876;2023-03-03T03:33:13;-1.10;99.90
13673;DHT22;6909;52.202;9.876;2023-03-03T03:35:39;-1.10;99.90
13673;DHT22;6909;52.202;9.876;2023-03-03T03:38:10;-1.10;99.90
13673;DHT22;6909;52.202;9.876;2023-03-03T03:40:36;-1.10;99.90
13673;DHT22;6909;52.202;9.876;2023-03-03T03:43:03;-1.00;99.90
13673;DHT22;6909;52.202;9.876;2023-03-03T03:45:30;-0.90;99.90
13673;DHT22;6909;52.202;9.876;2023-03-03T03:47:57;-0.90;99.90
13673;DHT22;6909;52.202;9.876;2023-03-03T03:50:25;-0.80;99.90
13673;DHT22;6909;52.202;9.876;2023-03-03T03:52:52;-0.80;99.90
13673;DHT22;6909;52.202;9.876;2023-03-03T03:55:18;-0.80;99.90
13673;DHT22;6909;52.202;9.876;2023-03-03T03:57:46;-0.80;99.90
13673;DHT22;6909;52.202;9.876;2023-03-03T04:00:14;-0.80;99.90
13673;DHT22;6909;52.202;9.876;2023-03-03T04:02:40;-0.80;99.90
13673;DHT22;6909;52.202;9.876;2023-03-03T04:05:07;-0.90;99.90
13673;DHT22;6909;52.202;9.876;2023-03-03T04:07:36;-0.90;99.90
13673;DHT22;6909;52.202;9.876;2023-03-03T04:10:02;-0.80;99.90
13673;DHT22;6909;52.202;9.876;2023-03-03T04:12:29;-0.70;99.90
13673;DHT22;6909;52.202;9.876;2023-03-03T04:15:00;-0.70;99.90
13673;DHT22;6909;52.202;9.876;2023-03-03T04:17:26;-0.70;99.90
13673;DHT22;6909;52.202;9.876;2023-03-03T04:19:53;-0.70;99.90
13673;DHT22;6909;52.202;9.876;2023-03-03T04:22:21;-0.70;99.90
13673;DHT22;6909;52.202;9.876;2023-03-03T04:24:49;-0.70;99.90
13673;DHT22;6909;52.202;9.876;2023-03-03T04:27:15;-0.70;99.90
13673;DHT22;6909;52.202;9.876;2023-03-03T04:29:42;-0.70;99.90
13673;DHT22;6909;52.202;9.876;2023-03-03T04:32:08;-0.70;99.90
13673;DHT22;6909;52.202;9.876;2023-03-03T04:34:35;-0.70;99.90
13673;DHT22;6909;52.202;9.876;2023-03-03T04:37:02;-0.70;99.90
13673;DHT22;6909;52.202;9.876;2023-03-03T04:39:28;-0.70;99.90
13673;DHT22;6909;52.202;9.876;2023-03-03T04:41:56;-0.70;99.90
13673;DHT22;6909;52.202;9.876;2023-03-03T04:44:23;-0.60;99.90
13673;DHT22;6909;52.202;9.876;2023-03-03T04:46:50;-0.70;99.90
13673;DHT22;6909;52.202;9.876;2023-03-03T04:49:16;-0.70;99.90
13673;DHT22;6909;52.202;9.876;2023-03-03T04:51:43;-0.70;99.90
13673;DHT22;6909;52.202;9.876;2023-03-03T04:54:09;-0.70;99.90
13673;DHT22;6909;52.202;9.876;2023-03-03T04:56:36;-0.70;99.90
13673;DHT22;6909;52.202;9.876;2023-03-03T04:59:04;-0.60;99.90
13673;DHT22;6909;52.202;9.876;2023-03-03T05:01:31;-0.70;99.90
13673;DHT22;6909;52.202;9.876;2023-03-03T05:03:57;-0.60;99.90
13673;DHT22;6909;52.202;9.876;2023-03-03T05:06:24;-0.60;99.90
13673;DHT22;6909;52.202;9.876;2023-03-03T05:08:50;-0.60;99.90
13673;DHT22;6909;52.202;9.876;2023-03-03T05:11:17;-0.60;99.90
13673;DHT22;6909;52.202;9.876;2023-03-03T05:13:44;-0.60;99.90
13673;DHT22;6909;52.202;9.876;2023-03-03T05:16:12;-0.60;99.90
13673;DHT22;6909;52.202;9.876;2023-03-03T05:18:39;-0.60;99.90
13673;DHT22;6909;52.202;9.876;2023-03-03T05:21:06;-0.60;99.90
13673;DHT22;6909;52.202;9.876;2023-03-03T05:23:32;-0.60;99.90
13673;DHT22;6909;52.202;9.876;2023-03-03T05:25:59;-0.50;99.90
13673;DHT22;6909;52.202;9.876;2023-03-03T05:28:26;-0.50;99.90
13673;DHT22;6909;52.202;9.876;2023-03-03T05:30:52;-0.40;99.90
13673;DHT22;6909;52.202;9.876;2023-03-03T05:33:20;-0.40;99.90
13673;DHT22;6909;52.202;9.876;2023-03-03T05:35:51;-0.50;99.90
13673;DHT22;6909;52.202;9.876;2023-03-03T05:38:18;-0.40;99.90
13673;DHT22;6909;52.202;9.876;2023-03-03T05:40:46;-0.30;99.90
13673;DHT22;6909;52.202;9.876;2023-03-03T05:43:12;-0.30;99.90
13673;DHT22;6909;52.202;9.876;2023-03-03T05:45:39;-0.30;99.90
13673;DHT22;6909;52.202;9.876;2023-03-03T05:48:06;-0.30;99.90
13673;DHT22;6909;52.202;9.876;2023-03-03T05:50:36;-0.20;99.90
13673;DHT22;6909;52.202;9.876;2023-03-03T05:53:03;-0.30;99.90
13673;DHT22;6909;52.202;9.876;2023-03-03T05:55:30;-0.20;99.90
13673;DHT22;6909;52.202;9.876;2023-03-03T05:57:56;-0.20;99.90
13673;DHT22;6909;52.202;9.876;2023-03-03T06:00:23;-0.20;99.90
13673;DHT22;6909;52.202;9.876;2023-03-03T06:02:50;-0.10;99.90
13673;DHT22;6909;52.202;9.876;2023-03-03T06:05:20;-0.10;99.90
13673;DHT22;6909;52.202;9.876;2023-03-03T06:07:48;-0.10;99.90
13673;DHT22;6909;52.202;9.876;2023-03-03T06:10:15;-0.10;99.90
13673;DHT22;6909;52.202;9.876;2023-03-03T06:12:41;-0.10;99.90
13673;DHT22;6909;52.202;9.876;2023-03-03T06:15:09;-0.10;99.90
13673;DHT22;6909;52.202;9.876;2023-03-03T06:17:36;-0.10;99.90
13673;DHT22;6909;52.202;9.876;2023-03-03T06:20:03;0.00;99.90
13673;DHT22;6909;52.202;9.876;2023-03-03T06:22:30;0.00;99.90
13673;DHT22;6909;52.202;9.876;2023-03-03T06:24:57;0.00;99.90
13673;DHT22;6909;52.202;9.876;2023-03-03T06:27:24;0.00;99.90
13673;DHT22;6909;52.202;9.876;2023-03-03T06:29:51;0.00;99.90
13673;DHT22;6909;52.202;9.876;2023-03-03T06:32:17;0.10;99.90
13673;DHT22;6909;52.202;9.876;2023-03-03T06:34:44;0.10;99.90
13673;DHT22;6909;52.202;9.876;2023-03-03T06:37:11;0.10;99.90
13673;DHT22;6909;52.202;9.876;2023-03-03T06:39:38;0.10;99.90
13673;DHT22;6909;52.202;9.876;2023-03-03T06:42:06;0.10;99.90
13673;DHT22;6909;52.202;9.876;2023-03-03T06:44:33;0.20;99.90
13673;DHT22;6909;52.202;9.876;2023-03-03T06:47:00;0.20;99.90
13673;DHT22;6909;52.202;9.876;2023-03-03T06:49:27;0.20;99.90
13673;DHT22;6909;52.202;9.876;2023-03-03T06:51:54;0.20;99.90
13673;DHT22;6909;52.202;9.876;2023-03-03T06:54:28;0.30;99.90
13673;DHT22;6909;52.202;9.876;2023-03-03T06:57:13;0.30;99.90
13673;DHT22;6909;52.202;9.876;2023-03-03T06:59:42;0.40;99.90
13673;DHT22;6909;52.202;9.876;2023-03-03T07:02:13;0.50;99.90
13673;DHT22;6909;52.202;9.876;2023-03-03T07:04:41;0.50;99.90
13673;DHT22;6909;52.202;9.876;2023-03-03T07:07:14;0.50;99.90
13673;DHT22;6909;52.202;9.876;2023-03-03T07:09:43;0.60;99.90
13673;DHT22;6909;52.202;9.876;2023-03-03T07:12:12;0.60;99.90
13673;DHT22;6909;52.202;9.876;2023-03-03T07:14:43;0.60;99.90
13673;DHT22;6909;52.202;9.876;2023-03-03T07:17:14;0.70;99.90
13673;DHT22;6909;52.202;9.876;2023-03-03T07:19:42;0.60;99.90
13673;DHT22;6909;52.202;9.876;2023-03-03T07:22:14;0.60;99.90
13673;DHT22;6909;52.202;9.876;2023-03-03T07:24:41;0.70;99.90
13673;DHT22;6909;52.202;9.876;2023-03-03T07:27:11;0.70;99.90
13673;DHT22;6909;52.202;9.876;2023-03-03T07:29:39;0.70;99.90
13673;DHT22;6909;52.202;9.876;2023-03-03T07:32:25;0.70;99.90
13673;DHT22;6909;52.202;9.876;2023-03-03T07:34:53;0.60;99.90
13673;DHT22;6909;52.202;9.876;2023-03-03T07:37:29;0.70;99.90
13673;DHT22;6909;52.202;9.876;2023-03-03T07:39:57;0.80;99.90
13673;DHT22;6909;52.202;9.876;2023-03-03T07:42:27;0.90;99.90
13673;DHT22;6909;52.202;9.876;2023-03-03T07:44:57;0.90;99.90
13673;DHT22;6909;52.202;9.876;2023-03-03T07:47:27;0.90;99.90
13673;DHT22;6909;52.202;9.876;2023-03-03T07:49:57;0.90;99.90
13673;DHT22;6909;52.202;9.876;2023-03-03T07:52:28;0.90;99.90
13673;DHT22;6909;52.202;9.876;2023-03-03T07:54:59;1.00;99.90
13673;DHT22;6909;52.202;9.876;2023-03-03T07:57:27;1.00;99.90
13673;DHT22;6909;52.202;9.876;2023-03-03T07:59:59;1.10;99.90
13673;DHT22;6909;52.202;9.876;2023-03-03T08:02:47;1.10;99.90
13673;DHT22;6909;52.202;9.876;2023-03-03T08:05:24;1.10;99.90
13673;DHT22;6909;52.202;9.876;2023-03-03T08:07:53;1.10;99.90
13673;DHT22;6909;52.202;9.876;2023-03-03T08:10:34;1.20;99.90
13673;DHT22;6909;52.202;9.876;2023-03-03T08:13:08;1.20;99.90
13673;DHT22;6909;52.202;9.876;2023-03-03T08:15:39;1.30;99.90
13673;DHT22;6909;52.202;9.876;2023-03-03T08:18:18;1.40;99.90
13673;DHT22;6909;52.202;9.876;2023-03-03T08:20:48;1.40;99.90
13673;DHT22;6909;52.202;9.876;2023-03-03T08:23:17;1.40;99.90
13673;DHT22;6909;52.202;9.876;2023-03-03T08:25:44;1.40;99.90
13673;DHT22;6909;52.202;9.876;2023-03-03T08:28:11;1.50;99.90
13673;DHT22;6909;52.202;9.876;2023-03-03T08:30:38;1.40;99.90
13673;DHT22;6909;52.202;9.876;2023-03-03T08:33:05;1.40;99.90
13673;DHT22;6909;52.202;9.876;2023-03-03T08:35:33;1.50;99.90
13673;DHT22;6909;52.202;9.876;2023-03-03T08:38:00;1.60;99.90
13673;DHT22;6909;52.202;9.876;2023-03-03T08:40:29;1.80;99.90
13673;DHT22;6909;52.202;9.876;2023-03-03T08:42:56;1.70;99.90
13673;DHT22;6909;52.202;9.876;2023-03-03T08:45:23;1.80;99.90
13673;DHT22;6909;52.202;9.876;2023-03-03T08:47:50;1.80;99.90
13673;DHT22;6909;52.202;9.876;2023-03-03T08:50:17;1.80;99.90
13673;DHT22;6909;52.202;9.876;2023-03-03T08:52:45;2.00;99.90
13673;DHT22;6909;52.202;9.876;2023-03-03T08:55:12;1.90;99.90
13673;DHT22;6909;52.202;9.876;2023-03-03T08:57:39;1.90;99.90
13673;DHT22;6909;52.202;9.876;2023-03-03T09:00:07;1.90;99.90
13673;DHT22;6909;52.202;9.876;2023-03-03T09:02:35;1.90;99.90
13673;DHT22;6909;52.202;9.876;2023-03-03T09:05:02;2.00;99.90
13673;DHT22;6909;52.202;9.876;2023-03-03T09:07:29;2.00;99.90
13673;DHT22;6909;52.202;9.876;2023-03-03T09:09:57;2.10;99.90
13673;DHT22;6909;52.202;9.876;2023-03-03T09:12:28;2.20;99.90
13673;DHT22;6909;52.202;9.876;2023-03-03T09:14:55;2.20;99.90
13673;DHT22;6909;52.202;9.876;2023-03-03T09:17:25;2.20;99.90
13673;DHT22;6909;52.202;9.876;2023-03-03T09:19:56;2.20;99.90
13673;DHT22;6909;52.202;9.876;2023-03-03T09:22:25;2.20;99.90
13673;DHT22;6909;52.202;9.876;2023-03-03T09:24:54;2.20;99.90
13673;DHT22;6909;52.202;9.876;2023-03-03T09:27:27;2.00;99.90
13673;DHT22;6909;52.202;9.876;2023-03-03T09:29:54;2.20;99.90
13673;DHT22;6909;52.202;9.876;2023-03-03T09:32:34;2.20;99.90
13673;DHT22;6909;52.202;9.876;2023-03-03T09:35:26;2.10;99.90
13673;DHT22;6909;52.202;9.876;2023-03-03T09:38:01;2.20;99.90
13673;DHT22;6909;52.202;9.876;2023-03-03T09:40:44;2.40;99.90
13673;DHT22;6909;52.202;9.876;2023-03-03T09:43:22;2.50;99.90
13673;DHT22;6909;52.202;9.876;2023-03-03T09:45:59;2.60;99.90
13673;DHT22;6909;52.202;9.876;2023-03-03T09:48:43;2.70;99.90
13673;DHT22;6909;52.202;9.876;2023-03-03T09:51:27;2.70;99.90
13673;DHT22;6909;52.202;9.876;2023-03-03T09:54:10;2.80;99.90
13673;DHT22;6909;52.202;9.876;2023-03-03T09:56:42;2.90;99.90
13673;DHT22;6909;52.202;9.876;2023-03-03T09:59:35;2.70;99.90
13673;DHT22;6909;52.202;9.876;2023-03-03T10:02:30;3.10;99.90
13673;DHT22;6909;52.202;9.876;2023-03-03T10:05:13;3.30;99.90
13673;DHT22;6909;52.202;9.876;2023-03-03T10:07:52;3.20;99.90
13673;DHT22;6909;52.202;9.876;2023-03-03T10:10:28;3.10;99.90
13673;DHT22;6909;52.202;9.876;2023-03-03T10:13:07;3.10;99.90
13673;DHT22;6909;52.202;9.876;2023-03-03T10:15:46;3.10;99.90
13673;DHT22;6909;52.202;9.876;2023-03-03T10:18:27;3.20;99.90
13673;DHT22;6909;52.202;9.876;2023-03-03T10:21:04;3.40;99.90
13673;DHT22;6909;52.202;9.876;2023-03-03T10:23:52;3.20;99.90
13673;DHT22;6909;52.202;9.876;2023-03-03T10:26:27;3.20;99.90
13673;DHT22;6909;52.202;9.876;2023-03-03T10:29:12;3.30;99.90
13673;DHT22;6909;52.202;9.876;2023-03-03T10:32:08;3.40;99.90
13673;DHT22;6909;52.202;9.876;2023-03-03T10:34:51;3.40;99.90
13673;DHT22;6909;52.202;9.876;2023-03-03T10:37:25;3.50;99.90
13673;DHT22;6909;52.202;9.876;2023-03-03T10:40:02;3.70;99.90
13673;DHT22;6909;52.202;9.876;2023-03-03T10:42:51;3.70;99.90
13673;DHT22;6909;52.202;9.876;2023-03-03T10:45:34;3.50;99.90
13673;DHT22;6909;52.202;9.876;2023-03-03T10:48:29;3.70;99.90
13673;DHT22;6909;52.202;9.876;2023-03-03T10:51:04;3.60;99.90
13673;DHT22;6909;52.202;9.876;2023-03-03T10:53:39;3.40;99.90
13673;DHT22;6909;52.202;9.876;2023-03-03T10:56:17;3.50;99.90
13673;DHT22;6909;52.202;9.876;2023-03-03T10:59:02;3.60;99.90
13673;DHT22;6909;52.202;9.876;2023-03-03T11:01:39;3.70;99.90
13673;DHT22;6909;52.202;9.876;2023-03-03T11:04:24;3.70;99.90
13673;DHT22;6909;52.202;9.876;2023-03-03T11:07:00;3.80;99.90
13673;DHT22;6909;52.202;9.876;2023-03-03T11:09:36;3.70;99.90
13673;DHT22;6909;52.202;9.876;2023-03-03T11:12:22;3.70;99.90
13673;DHT22;6909;52.202;9.876;2023-03-03T11:14:59;3.90;99.90
13673;DHT22;6909;52.202;9.876;2023-03-03T11:17:40;3.80;99.90
13673;DHT22;6909;52.202;9.876;2023-03-03T11:20:23;3.80;99.90
13673;DHT22;6909;52.202;9.876;2023-03-03T11:22:59;3.90;99.90
13673;DHT22;6909;52.202;9.876;2023-03-03T11:25:32;3.90;99.90
13673;DHT22;6909;52.202;9.876;2023-03-03T11:28:20;4.00;99.90
13673;DHT22;6909;52.202;9.876;2023-03-03T11:30:58;4.20;99.90
13673;DHT22;6909;52.202;9.876;2023-03-03T11:33:33;4.00;99.90
13673;DHT22;6909;52.202;9.876;2023-03-03T11:36:09;4.20;99.90
13673;DHT22;6909;52.202;9.876;2023-03-03T11:38:46;4.00;99.90
13673;DHT22;6909;52.202;9.876;2023-03-03T11:41:22;4.10;99.90
13673;DHT22;6909;52.202;9.876;2023-03-03T11:43:53;4.00;99.90
13673;DHT22;6909;52.202;9.876;2023-03-03T11:46:25;4.10;99.90
13673;DHT22;6909;52.202;9.876;2023-03-03T11:48:58;4.00;99.90
13673;DHT22;6909;52.202;9.876;2023-03-03T11:51:38;3.80;99.90
13673;DHT22;6909;52.202;9.876;2023-03-03T11:54:12;3.90;99.90
13673;DHT22;6909;52.202;9.876;2023-03-03T11:56:42;3.90;99.90
13673;DHT22;6909;52.202;9.876;2023-03-03T12:02:24;4.10;99.90
13673;DHT22;6909;52.202;9.876;2023-03-03T12:04:54;4.10;99.90
13673;DHT22;6909;52.202;9.876;2023-03-03T12:07:28;4.20;99.90
13673;DHT22;6909;52.202;9.876;2023-03-03T12:10:02;4.10;99.90
13673;DHT22;6909;52.202;9.876;2023-03-03T12:12:37;4.20;99.90
13673;DHT22;6909;52.202;9.876;2023-03-03T12:15:14;4.40;99.90
13673;DHT22;6909;52.202;9.876;2023-03-03T12:18:01;4.40;99.90
13673;DHT22;6909;52.202;9.876;2023-03-03T12:20:34;4.50;99.90
13673;DHT22;6909;52.202;9.876;2023-03-03T12:23:19;4.30;99.90
13673;DHT22;6909;52.202;9.876;2023-03-03T12:25:55;4.10;99.90
13673;DHT22;6909;52.202;9.876;2023-03-03T12:28:26;3.90;99.90
13673;DHT22;6909;52.202;9.876;2023-03-03T12:31:22;4.10;99.90
13673;DHT22;6909;52.202;9.876;2023-03-03T12:33:56;4.30;99.90
13673;DHT22;6909;52.202;9.876;2023-03-03T12:39:30;4.10;99.90
13673;DHT22;6909;52.202;9.876;2023-03-03T12:42:04;4.30;99.90
13673;DHT22;6909;52.202;9.876;2023-03-03T12:44:37;4.40;99.90
13673;DHT22;6909;52.202;9.876;2023-03-03T12:47:13;4.20;99.90
13673;DHT22;6909;52.202;9.876;2023-03-03T12:49:50;4.20;99.90
13673;DHT22;6909;52.202;9.876;2023-03-03T12:52:27;4.40;99.90
13673;DHT22;6909;52.202;9.876;2023-03-03T12:55:07;4.60;99.90
13673;DHT22;6909;52.202;9.876;2023-03-03T12:57:41;4.80;99.90
13673;DHT22;6909;52.202;9.876;2023-03-03T13:00:28;5.00;99.90
13673;DHT22;6909;52.202;9.876;2023-03-03T13:03:04;5.00;99.90
13673;DHT22;6909;52.202;9.876;2023-03-03T13:05:43;5.20;99.90
13673;DHT22;6909;52.202;9.876;2023-03-03T13:08:37;5.10;99.90
13673;DHT22;6909;52.202;9.876;2023-03-03T13:11:24;5.10;99.90
13673;DHT22;6909;52.202;9.876;2023-03-03T13:13:56;5.20;99.90
13673;DHT22;6909;52.202;9.876;2023-03-03T13:16:29;4.90;99.90
13673;DHT22;6909;52.202;9.876;2023-03-03T13:19:00;5.20;99.90
13673;DHT22;6909;52.202;9.876;2023-03-03T13:21:33;5.40;99.90
13673;DHT22;6909;52.202;9.876;2023-03-03T13:24:04;5.30;99.90
13673;DHT22;6909;52.202;9.876;2023-03-03T13:26:36;5.20;99.90
13673;DHT22;6909;52.202;9.876;2023-03-03T13:29:14;5.20;99.90
13673;DHT22;6909;52.202;9.876;2023-03-03T13:31:47;5.20;99.90
13673;DHT22;6909;52.202;9.876;2023-03-03T13:34:24;5.00;99.90
13673;DHT22;6909;52.202;9.876;2023-03-03T13:36:57;5.00;99.90
13673;DHT22;6909;52.202;9.876;2023-03-03T13:39:31;5.00;99.90
13673;DHT22;6909;52.202;9.876;2023-03-03T13:42:02;5.10;99.90
13673;DHT22;6909;52.202;9.876;2023-03-03T13:44:34;5.20;99.90
13673;DHT22;6909;52.202;9.876;2023-03-03T13:47:13;5.30;99.90
13673;DHT22;6909;52.202;9.876;2023-03-03T13:49:52;5.60;99.90
13673;DHT22;6909;52.202;9.876;2023-03-03T13:52:22;5.30;99.90
13673;DHT22;6909;52.202;9.876;2023-03-03T13:55:01;5.50;99.90
13673;DHT22;6909;52.202;9.876;2023-03-03T13:57:43;5.30;99.90
13673;DHT22;6909;52.202;9.876;2023-03-03T14:00:18;5.20;99.90
13673;DHT22;6909;52.202;9.876;2023-03-03T14:02:59;5.20;99.90
13673;DHT22;6909;52.202;9.876;2023-03-03T14:05:35;5.20;99.90
13673;DHT22;6909;52.202;9.876;2023-03-03T14:08:08;5.10;99.90
13673;DHT22;6909;52.202;9.876;2023-03-03T14:10:43;5.10;99.90
13673;DHT22;6909;52.202;9.876;2023-03-03T14:13:18;5.10;99.90
13673;DHT22;6909;52.202;9.876;2023-03-03T14:15:51;5.00;99.90
13673;DHT22;6909;52.202;9.876;2023-03-03T14:18:27;4.90;99.90
13673;DHT22;6909;52.202;9.876;2023-03-03T14:20:57;5.10;99.90
13673;DHT22;6909;52.202;9.876;2023-03-03T14:23:31;5.10;99.90
13673;DHT22;6909;52.202;9.876;2023-03-03T14:26:06;5.20;99.90
13673;DHT22;6909;52.202;9.876;2023-03-03T14:28:39;5.10;99.90
13673;DHT22;6909;52.202;9.876;2023-03-03T14:31:21;4.90;99.90
13673;DHT22;6909;52.202;9.876;2023-03-03T14:34:00;4.90;99.90
13673;DHT22;6909;52.202;9.876;2023-03-03T14:36:30;5.00;99.90
13673;DHT22;6909;52.202;9.876;2023-03-03T14:38:57;5.10;99.90
13673;DHT22;6909;52.202;9.876;2023-03-03T14:41:35;4.80;99.90
13673;DHT22;6909;52.202;9.876;2023-03-03T14:44:27;4.70;99.90
13673;DHT22;6909;52.202;9.876;2023-03-03T14:47:10;4.70;99.90
13673;DHT22;6909;52.202;9.876;2023-03-03T14:49:39;4.80;99.90
13673;DHT22;6909;52.202;9.876;2023-03-03T14:52:18;4.70;99.90
13673;DHT22;6909;52.202;9.876;2023-03-03T14:54:47;4.60;99.90
13673;DHT22;6909;52.202;9.876;2023-03-03T14:57:16;4.70;99.90
13673;DHT22;6909;52.202;9.876;2023-03-03T14:59:57;4.60;99.90
13673;DHT22;6909;52.202;9.876;2023-03-03T15:02:28;4.50;99.90
13673;DHT22;6909;52.202;9.876;2023-03-03T15:05:14;4.50;99.90
13673;DHT22;6909;52.202;9.876;2023-03-03T15:07:41;4.60;99.90
13673;DHT22;6909;52.202;9.876;2023-03-03T15:10:10;4.70;99.90
13673;DHT22;6909;52.202;9.876;2023-03-03T15:12:40;4.60;99.90
13673;DHT22;6909;52.202;9.876;2023-03-03T15:15:17;4.60;99.90
13673;DHT22;6909;52.202;9.876;2023-03-03T15:17:54;4.60;99.90
13673;DHT22;6909;52.202;9.876;2023-03-03T15:20:33;4.80;99.90
13673;DHT22;6909;52.202;9.876;2023-03-03T15:23:18;4.70;99.90
13673;DHT22;6909;52.202;9.876;2023-03-03T15:25:57;4.80;99.90
13673;DHT22;6909;52.202;9.876;2023-03-03T15:28:35;4.70;99.90
13673;DHT22;6909;52.202;9.876;2023-03-03T15:31:12;4.70;99.90
13673;DHT22;6909;52.202;9.876;2023-03-03T15:33:46;4.60;99.90
13673;DHT22;6909;52.202;9.876;2023-03-03T15:36:27;4.60;99.90
13673;DHT22;6909;52.202;9.876;2023-03-03T15:39:03;4.60;99.90
13673;DHT22;6909;52.202;9.876;2023-03-03T15:41:39;4.70;99.90
13673;DHT22;6909;52.202;9.876;2023-03-03T15:44:15;4.70;99.90
13673;DHT22;6909;52.202;9.876;2023-03-03T15:46:56;4.70;99.90
13673;DHT22;6909;52.202;9.876;2023-03-03T15:49:49;4.80;99.90
13673;DHT22;6909;52.202;9.876;2023-03-03T15:52:27;4.70;99.90
13673;DHT22;6909;52.202;9.876;2023-03-03T15:55:09;4.70;99.90
13673;DHT22;6909;52.202;9.876;2023-03-03T15:57:48;4.80;99.90
13673;DHT22;6909;52.202;9.876;2023-03-03T16:00:33;4.70;99.90
13673;DHT22;6909;52.202;9.876;2023-03-03T16:03:11;4.50;99.90
13673;DHT22;6909;52.202;9.876;2023-03-03T16:05:45;4.40;99.90
13673;DHT22;6909;52.202;9.876;2023-03-03T16:08:16;4.30;99.90
13673;DHT22;6909;52.202;9.876;2023-03-03T16:10:49;4.20;99.90
13673;DHT22;6909;52.202;9.876;2023-03-03T16:13:36;4.30;99.90
13673;DHT22;6909;52.202;9.876;2023-03-03T16:16:13;4.20;99.90
13673;DHT22;6909;52.202;9.876;2023-03-03T16:18:52;4.00;99.90
13673;DHT22;6909;52.202;9.876;2023-03-03T16:21:28;3.90;99.90
13673;DHT22;6909;52.202;9.876;2023-03-03T16:23:59;3.80;99.90
13673;DHT22;6909;52.202;9.876;2023-03-03T16:26:39;3.60;99.90
13673;DHT22;6909;52.202;9.876;2023-03-03T16:29:17;3.60;99.90
13673;DHT22;6909;52.202;9.876;2023-03-03T16:31:49;3.50;99.90
13673;DHT22;6909;52.202;9.876;2023-03-03T16:34:24;3.50;99.90
13673;DHT22;6909;52.202;9.876;2023-03-03T16:37:03;3.30;99.90